Rachel, Nevada Weather observations

Data are for observation ending at time listed.
 Day   Time    Ave.   Ave.  Ave.  Vector   Max.   Stn.    Total    Solar   Ave.  
  of    of     Air    Rel.  Wind   Wind    Wind   Baro.  Precip.   Rad.    Soil  
Year   Day     Temp.  Hum.  Speed  Dir.    Gust   Pres.                    Temp. 
2021   (PST)    F      %     mph   deg.    mph     mb.     in.     W/m2     F   
------------------------------------------------------------------------------
 124   13:20   74.8    11    7.0   289     16.8   836.8    0.00     713    67.2
 124   13:30   74.7    11    3.1   309     10.2   837.0    0.00     700    999.0
 124   13:40   74.2    11    7.1     0     11.6   835.8    0.00     690    999.0
 124   13:50   74.7    11    6.0    43      9.8   835.3    0.00     675    67.2
 124   14:00   75.4    11    4.1    24      8.6   834.3    0.00     659    67.9
 124   14:10   75.7    11    3.9    49     11.0   833.8    0.00     641    999.0
 124   14:20   74.9    11    6.6    64     11.7   834.3    0.00     625    66.4
 124   14:30   75.9    10    5.1    76     14.3   833.9    0.00     606    67.5
 124   14:40   76.1    10    5.3   357     13.1   833.6    0.00     586    67.7
 124   14:50   76.8    10    3.3   340      7.9   833.4    0.00     564    67.6
 124   15:00   77.0    10    4.1    28      9.6   833.3    0.00     544    67.9
 124   15:10   77.5    10    5.4   292     12.1   833.4    0.00     522    67.9
 124   15:20   77.3    10    5.1   197     12.4   833.4    0.00     499    67.9
 124   15:30   78.0    10    6.2   256     12.9   831.4    0.00     475    68.0
 124   15:40   79.4    10   10.4   274     19.3   831.3    0.00     451    67.7
 124   15:50   79.7    10    8.8   269     16.9   831.6    0.00     426    68.0
 124   16:00   79.7    10   10.7   270     16.5   831.5    0.00     401    67.8
 124   16:10   79.6    10   12.8   271     17.8   830.9    0.00     377    67.9
 124   16:20   78.9    10   12.5   275     21.3   830.4    0.00     351    68.0
 124   16:30   78.9    10   12.6   256     25.6   830.0    0.00     325    68.2
 124   16:40   79.1    10   13.0   284     25.8   830.0    0.00     299    67.9
 124   16:50   79.0    10   13.7   293     20.5   830.1    0.00     273    68.3
 124   17:00   78.9    10   15.0   279     22.9   830.0    0.00     246    68.2
 124   17:10   78.7    10   14.6   280     22.1   830.1    0.00     220    68.1
 124   17:20   78.5    10   14.1   279     20.3   829.9    0.00     194    68.1
 124   17:30   78.0    11   13.9   282     20.9   829.7    0.00     168    68.3
 124   17:40   77.6    11   11.7   285     17.5   829.8    0.00     144    68.2
 124   17:50   77.2    11   14.5   278     20.9   829.5    0.00     120    68.2
 124   18:00   77.1    11   12.1   269     17.0   829.6    0.00      96    68.2
 124   18:10   77.3    11    9.9   270     16.0   829.7    0.00      66    68.2
 124   18:20   75.8    12   12.3   282     16.4   829.9    0.00      40    68.5
 124   18:30   74.3    12   12.9   282     18.8   830.4    0.00      23    68.3
 124   18:40   72.8    13   11.5   280     14.8   829.1    0.00      11    68.0
 124   18:50   71.5    13   10.1   280     13.2   829.2    0.00       5    68.0
 124   19:00   70.1    14    8.0   270     12.4   829.1    0.00       3    67.8
 124   19:10   69.0    13    8.3   265     10.9   828.9    0.00       1    67.8
 124   19:20   67.8    13    6.1   254      8.2   829.0    0.00       0    67.7
 124   19:30   67.7    13    7.6   251     10.1   828.4    0.00       0    67.5
 124   19:40   67.7    13    7.2   247     10.5   827.7    0.00       0    67.3
 124   19:50   67.8    13    7.7   243     10.4   827.8    0.00       0    67.3
 124   20:00   66.9    14    8.2   230     10.4   827.7    0.00       0    67.1
 124   20:10   66.8    14    8.5   237     12.6   828.1    0.00       0    66.8
 124   20:20   67.3    14    6.6   242      9.0   828.4    0.00       0    66.8
 124   20:30   65.2    14    6.0   263      7.9   827.7    0.00       0    66.8
 124   20:40   62.9    16    6.9   270      9.1   827.5    0.00       0    66.3
 124   20:50   62.1    18    8.1   264     10.2   827.6    0.00       0    66.2
 124   21:00   61.4    18    7.6   274     15.0   827.7    0.00       0    65.9
 124   21:10   63.9    15   11.5   252     17.4   828.7    0.00       0    65.7
 124   21:20   66.9    13    8.9   234     13.3   829.2    0.00       0    65.9
 124   21:30   66.3    14    7.3   252     13.0   829.3    0.00       0    999.0
 124   21:40   62.4    16    5.6   271      9.2   829.5    0.00       0    999.0
 124   21:50   62.4    16    6.6   278      9.6   829.6    0.00       0    65.1
 124   22:00   58.7    20    3.9     2      6.6   829.3    0.00       0    65.0
 124   22:10   56.4    19    7.7    83      9.4   828.7    0.00       0    64.8
 124   22:20   55.7    19    6.5    98      8.8   829.5    0.00       0    64.7
 124   22:30   56.2    19    6.6    98      9.1   829.6    0.00       0    64.4
 124   22:40   55.4    19   11.3    86     13.4   829.7    0.00       0    64.3
 124   22:50   54.6    20   13.6    54     18.0   829.9    0.00       0    64.0
 124   23:00   58.6    17   11.9   360     17.2   830.2    0.00       0    999.0
 124   23:10   62.7    14    8.1   328     12.9   830.4    0.00       0    63.7
 124   23:20   58.6    16    4.6   131      7.7   830.2    0.00       0    63.4
 124   23:30   57.8    17    8.3   184     11.4   829.9    0.00       0    63.3
 124   23:40   57.1    17    9.3   192     11.1   829.6    0.00       0    63.2
 124   23:50   55.6    18    7.5    57     14.6   829.5    0.00       0    62.9
 125    0:00   55.9    18    3.9    29      7.6   829.5    0.00       0    62.9
 125    0:10   56.1    18    2.1   229      3.1   829.5    0.00       0    62.7
 125    0:20   54.0    19    3.2   233      5.3   829.4    0.00       0    62.6
 125    0:30   51.0    20    7.5   161      9.1   829.6    0.00       0    62.4
 125    0:40   51.8    20    8.5   168     10.2   831.5    0.00       0    62.3
 125    0:50   51.9    20    5.0   171      8.1   832.3    0.00       0    62.1
 125    1:00   50.6    20    5.2   224      6.4   832.7    0.00       0    62.0
 125    1:10   51.1    20    3.5   221      5.8   834.8    0.00       0    61.8
 125    1:20   51.3    21    4.7   241      6.6   836.6    0.00       0    61.5
 125    1:30   52.1    21    4.8   242      6.4   835.5    0.00       0    61.5
 125    1:40   51.4    20    4.1   214      5.7   834.9    0.00       0    61.3
 125    1:50   51.6    21    5.0   249      7.6   835.5    0.00       0    61.2
 125    2:00   52.9    21    6.0   250      9.0   837.2    0.00       0    61.1
 125    2:10   53.6    20    7.0   259      8.8   835.5    0.00       0    61.0
 125    2:20   47.8    23    2.8   335      6.1   834.7    0.00       0    60.7
 125    2:30   46.3    26    4.0   246      5.6   835.0    0.00       0    60.6
 125    2:40   46.8    29    4.7   268      6.1   836.1    0.00       0    60.4
 125    2:50   46.7    28    6.1   256      8.7   838.1    0.00       0    60.3
 125    3:00   48.7    26    5.7   272      8.3   839.4    0.00       0    60.1
 125    3:10   47.5    26    2.5   225      4.2   840.8    0.00       0    999.0
 125    3:20   48.2    24    4.0   179      5.8   841.7    0.00       0    60.0
 125    3:30   47.2    23    5.3   204      7.4   842.2    0.00       0    59.2
 125    3:40   49.0    22    5.6   224      6.9   845.2    0.00       0    999.0
 125    3:50   48.7    23    5.7   226      7.5   845.2    0.00       0    999.0
 125    4:00   50.1    22    6.8   242      8.4   846.9    0.00       0    59.3
 125    4:10   49.9    23    5.3   261      8.0   847.8    0.00       0    59.3
 125    4:20   46.1    25    3.5   281      5.1   848.4    0.00       0    58.8
 125    4:30   42.4    29    3.3   333      4.6   849.2    0.00       0    59.9
 125    4:40   41.5    32    1.9   115      3.5   850.0    0.00       0    999.0
 125    4:50   44.0    30    2.3   167      4.2   848.5    0.00       3    58.6
 125    5:00   44.0    28    4.0   204      4.7   849.3    0.00       4    58.2
 125    5:10   44.2    28    4.7   207      6.1   851.1    0.00      13    58.0
 125    5:20   46.1    26    4.6   220      6.4   851.1    0.00      33    58.0
 125    5:30   46.6    25    4.2   210      5.4   851.1    0.00      58    58.0
 125    5:40   47.9    24    3.1   246      4.5   851.4    0.00      86    57.8
 125    5:50   48.4    24    3.0   317      4.8   851.8    0.00     112    57.7
 125    6:00   47.6    26    4.4   323      6.1   852.2    0.00     138    57.8
 125    6:10   47.4    27    3.0   310      4.2   852.4    0.00     166    58.0
 125    6:20   48.2    26    3.5   321      5.3   852.6    0.00     194    58.0
 125    6:30   50.6    23    2.5   332      4.7   852.8    0.00     222    57.9
 125    6:40   53.2    20    3.3    20      5.6   853.1    0.00     251    57.8
 125    6:50   53.6    20    3.7    65      9.1   853.3    0.00     280    58.2
 125    7:00   56.0    18    2.5   184      5.6   853.5    0.00     308    58.5
 125    7:10   58.6    17    1.8   312      3.0   841.9    0.00     337    58.5
 125    7:20   58.7    17    3.0   338      5.2   832.9    0.00     366    58.8
 125    7:30   60.0    16    2.3     5      5.0   833.2    0.00     393    59.1
 125    7:40   61.9    15    1.3   302      2.6   833.6    0.00     419    59.4
 125    7:50   62.5    15    2.4     1      5.3   833.8    0.00     444    59.8
 125    8:00   63.2    14    2.4    10      5.3   834.2    0.00     470    60.0
 125    8:10   64.1    14    3.9    12      6.6   834.6    0.00     495    60.5
 125    8:20   65.9    14    6.6    14     12.4   835.2    0.00     520    60.7
 125    8:30   67.4    13    9.2    20     12.9   836.4    0.00     543    61.0
 125    8:40   68.0    13    9.7    33     15.1   835.6    0.00     566    61.3
 125    8:50   69.2    13   10.7    37     19.4   835.7    0.00     587    61.6
 125    9:00   70.0    13   11.0    43     16.6   836.1    0.00     607    62.2
 125    9:10   71.2    12   11.5    45     17.5   836.2    0.00     626    62.2
 125    9:20   71.1    12   12.5    37     17.3   836.3    0.00     644    62.8
 125    9:30   71.1    12   13.8    35     19.0   836.1    0.00     662    63.1
 125    9:40   71.3    12   12.5    24     18.2   835.8    0.00     678    63.8
 125    9:50   72.1    12   11.8    25     18.6   835.9    0.00     692    64.1
 125   10:00   72.7    12   11.6    26     17.8   836.1    0.00     704    64.3
 125   10:10   73.3    12   10.9    30     20.2   836.4    0.00     716    64.8
 125   10:20   74.0    12   10.2    43     19.0   836.8    0.00     726    65.2
 125   10:30   73.8    12    9.5    28     16.4   837.0    0.00     734    65.9
 125   10:40   74.6    12    9.5    42     16.3   836.1    0.00     742    66.0
 125   10:50   75.0    12    9.9    32     15.9   835.9    0.00     749    66.4
 125   11:00   75.1    12    9.1     3     15.0   835.7    0.00     753    67.0
 125   11:10   76.5    11    9.6    50     15.9   835.8    0.00     757    67.2
 125   11:20   76.4    11   10.2    37     17.2   835.5    0.00     761    67.6
 125   11:30   76.9    11    7.4    40     14.7   835.7    0.00     764    68.1
 125   11:40   78.1    10    6.8    95     13.7   835.8    0.00     760    68.3
 125   11:50   78.0    11    9.9    43     16.8   834.5    0.00     763    68.3
 125   12:00   77.5    11    9.9    46     18.1   833.3    0.00     765    68.9
 125   12:10   77.2    11    5.6     6     12.3   831.7    0.00     759    69.2
 125   12:20   77.9    10    4.3    13      9.9   831.1    0.00     753    69.4
 125   12:30   78.7    10    3.8   121      9.3   831.0    0.00     744    69.2
 125   12:40   78.5    10    8.8   172     16.6   834.4    0.00     742    69.6
 125   12:50   79.1    10    3.1   260      7.7   835.2    0.00     733    69.7
 125   13:00   79.7    10    6.8   212     13.8   835.4    0.00     726    70.4
 125   13:10   80.1    10    6.7   172     14.6   834.2    0.00     716    70.3

Return to St. George, Utah graphs page.


Western Regional Climate Center,wrcc@dri.edu